Time;durP1;ratioP1;P1;durP2;ratioP2;P2;SDS_P1;SDS_P2;PMS_P1;PMS_P2;Temp;Humidity;BMP_temperature;BMP_pressure;BME280_temperature;BME280_humidity;BME280_pressure;Samples;Min_cycle;Max_cycle;Signal;HPM_P1;HPM_P2
2023/04/07 00:01:33;;;;;;;10.27;7.70;;;;;;;;;;5051898;28;20093;-65
2023/04/07 00:03:59;;;;;;;8.73;7.82;;;;;;;;;;5069783;28;20028;-65
2023/04/07 00:06:26;;;;;;;10.35;7.78;;;;;;;;;;5072155;28;20036;-66
2023/04/07 00:08:52;;;;;;;8.55;7.65;;;;;;;;;;5071794;28;20036;-65
2023/04/07 00:11:17;;;;;;;9.38;8.25;;;;;;;;;;5067233;28;20033;-67
2023/04/07 00:13:43;;;;;;;13.88;8.13;;;;;;;;;;5069904;28;20032;-65
2023/04/07 00:16:08;;;;;;;9.88;7.22;;;;;;;;;;5071372;28;20476;-65
2023/04/07 00:18:34;;;;;;;8.15;7.35;;;;;;;;;;5066848;28;20024;-66
2023/04/07 00:20:59;;;;;;;9.05;7.07;;;;;;;;;;5070344;28;20086;-66
2023/04/07 00:23:25;;;;;;;6.85;6.25;;;;;;;;;;5073732;28;20043;-66
2023/04/07 00:25:51;;;;;;;9.27;7.05;;;;;;;;;;5070451;28;20037;-66
2023/04/07 00:28:17;;;;;;;8.02;6.95;;;;;;;;;;5069014;28;20407;-66
2023/04/07 00:30:43;;;;;;;10.38;7.72;;;;;;;;;;5035977;28;20032;-67
2023/04/07 00:33:08;;;;;;;10.10;8.02;;;;;;;;;;5046517;28;20032;-67
2023/04/07 00:35:34;;;;;;;12.43;7.85;;;;;;;;;;5073620;28;20063;-64
2023/04/07 00:37:59;;;;;;;7.90;6.40;;;;;;;;;;5049304;28;20029;-66
2023/04/07 00:40:25;;;;;;;9.68;7.25;;;;;;;;;;5072674;28;20431;-65
2023/04/07 00:42:51;;;;;;;9.43;6.70;;;;;;;;;;5068889;28;20063;-67
2023/04/07 00:45:17;;;;;;;10.68;7.00;;;;;;;;;;5069776;28;20024;-66
2023/04/07 00:47:42;;;;;;;9.20;6.88;;;;;;;;;;5042099;28;20120;-64
2023/04/07 00:50:08;;;;;;;10.57;8.30;;;;;;;;;;5055085;28;20051;-67
2023/04/07 00:52:35;;;;;;;8.23;7.40;;;;;;;;;;5073447;28;20036;-66
2023/04/07 00:55:00;;;;;;;9.35;7.13;;;;;;;;;;5068800;28;20036;-67
2023/04/07 00:57:26;;;;;;;9.63;7.80;;;;;;;;;;5067314;28;20119;-65
2023/04/07 00:59:52;;;;;;;8.77;7.30;;;;;;;;;;5070376;28;20094;-65
2023/04/07 01:02:41;;;;;;;9.13;7.93;;;;;;;;;;5033288;28;20037;-65
2023/04/07 01:05:33;;;;;;;9.32;8.43;;;;;;;;;;5065208;28;20064;-64
2023/04/07 01:08:14;;;;;;;10.27;7.45;;;;;;;;;;5067322;28;20028;-67
2023/04/07 01:10:54;;;;;;;8.88;6.85;;;;;;;;;;5051905;28;20037;-66
2023/04/07 01:13:22;;;;;;;9.48;6.75;;;;;;;;;;5050815;28;20039;-64
2023/04/07 01:15:51;;;;;;;7.60;6.07;;;;;;;;;;5049555;28;20097;-65
2023/04/07 01:18:25;;;;;;;7.82;6.07;;;;;;;;;;5047574;28;20136;-65
2023/04/07 01:20:59;;;;;;;6.43;5.88;;;;;;;;;;5052094;28;20040;-65
2023/04/07 01:24:29;;;;;;;12.30;8.00;;;;;;;;;;5067021;28;20060;-67
2023/04/07 01:27:04;;;;;;;8.27;7.32;;;;;;;;;;4928424;28;20043;-67
2023/04/07 01:29:35;;;;;;;6.05;5.45;;;;;;;;;;4997260;28;20125;-66
2023/04/07 01:32:04;;;;;;;9.20;7.57;;;;;;;;;;4976026;28;20046;-65
2023/04/07 01:34:31;;;;;;;;;;;;;;;;;;5002246;28;20054;-64
2023/04/07 01:36:59;;;;;;;7.00;6.30;;;;;;;;;;4999029;28;19956;-65
2023/04/07 01:39:26;;;;;;;11.40;7.83;;;;;;;;;;4997341;28;20045;-65
2023/04/07 01:41:53;;;;;;;7.57;5.95;;;;;;;;;;4999192;28;20343;-65
2023/04/07 01:44:19;;;;;;;11.77;8.15;;;;;;;;;;5001036;28;20033;-67
2023/04/07 01:46:46;;;;;;;12.35;8.20;;;;;;;;;;4998770;28;20100;-66
2023/04/07 01:49:13;;;;;;;6.85;6.05;;;;;;;;;;5000037;28;20580;-65
2023/04/07 01:51:39;;;;;;;10.00;8.45;;;;;;;;;;4976292;28;20038;-65
2023/04/07 01:54:06;;;;;;;9.10;7.30;;;;;;;;;;4982254;28;20046;-67
2023/04/07 01:56:32;;;;;;;5.40;4.90;;;;;;;;;;4998120;28;20076;-67
2023/04/07 01:59:01;;;;;;;9.65;7.93;;;;;;;;;;4977333;28;20038;-66
2023/04/07 02:01:28;;;;;;;11.10;7.43;;;;;;;;;;5043144;28;20063;-66
2023/04/07 02:04:03;;;;;;;7.22;5.70;;;;;;;;;;5050438;28;20166;-67
2023/04/07 02:06:33;;;;;;;8.65;6.50;;;;;;;;;;5048930;28;20029;-66
2023/04/07 02:09:05;;;;;;;12.00;8.20;;;;;;;;;;5052059;28;20502;-66
2023/04/07 02:11:33;;;;;;;12.15;8.23;;;;;;;;;;5069032;28;20055;-66
2023/04/07 02:14:05;;;;;;;11.38;8.27;;;;;;;;;;5032440;28;20411;-65
2023/04/07 02:16:40;;;;;;;10.77;8.02;;;;;;;;;;5046906;28;20040;-66
2023/04/07 02:19:07;;;;;;;12.02;9.07;;;;;;;;;;5052203;28;20024;-67
2023/04/07 02:21:33;;;;;;;10.15;7.28;;;;;;;;;;5049430;28;20059;-66
2023/04/07 02:24:05;;;;;;;12.23;8.40;;;;;;;;;;5064725;28;20032;-66
2023/04/07 02:26:35;;;;;;;6.13;5.57;;;;;;;;;;5050206;28;20072;-67
2023/04/07 02:29:04;;;;;;;8.15;6.53;;;;;;;;;;5050204;28;20033;-66
2023/04/07 02:31:30;;;;;;;;;;;;;;;;;;5051305;28;20140;-66
2023/04/07 02:33:55;;;;;;;11.55;7.50;;;;;;;;;;5063709;28;20049;-67
2023/04/07 02:36:21;;;;;;;7.13;5.95;;;;;;;;;;5052852;28;20103;-67
2023/04/07 02:38:47;;;;;;;6.35;5.75;;;;;;;;;;5049191;28;20482;-66
2023/04/07 02:41:12;;;;;;;9.98;6.95;;;;;;;;;;5050952;28;20028;-66
2023/04/07 02:43:38;;;;;;;14.70;8.93;;;;;;;;;;5062922;28;20036;-66
2023/04/07 02:46:03;;;;;;;7.93;6.85;;;;;;;;;;5049357;28;20527;-67
2023/04/07 02:48:29;;;;;;;7.63;6.57;;;;;;;;;;5048611;28;20042;-66
2023/04/07 02:50:54;;;;;;;9.82;7.63;;;;;;;;;;5065677;28;20569;-67
2023/04/07 02:53:20;;;;;;;13.35;9.65;;;;;;;;;;5061067;28;20036;-67
2023/04/07 02:55:46;;;;;;;10.48;9.00;;;;;;;;;;5048400;28;20039;-66
2023/04/07 02:58:11;;;;;;;12.35;8.73;;;;;;;;;;5047765;28;20032;-66
2023/04/07 03:00:42;;;;;;;10.98;8.80;;;;;;;;;;5049937;28;20056;-67
2023/04/07 03:03:18;;;;;;;10.93;8.48;;;;;;;;;;5029621;28;20683;-67
2023/04/07 03:05:56;;;;;;;13.50;8.85;;;;;;;;;;5049035;28;20613;-66
2023/04/07 03:08:23;;;;;;;8.93;7.78;;;;;;;;;;5051259;28;20044;-67
2023/04/07 03:10:49;;;;;;;13.38;8.73;;;;;;;;;;5051916;28;20040;-67
2023/04/07 03:13:18;;;;;;;12.55;8.90;;;;;;;;;;5054108;28;20531;-67
2023/04/07 03:15:44;;;;;;;10.10;7.88;;;;;;;;;;5051213;28;20590;-66
2023/04/07 03:18:10;;;;;;;13.57;9.50;;;;;;;;;;5052003;28;20032;-67
2023/04/07 03:20:36;;;;;;;10.77;8.80;;;;;;;;;;5052995;28;20044;-67
2023/04/07 03:23:08;;;;;;;12.15;8.95;;;;;;;;;;5053950;28;20055;-66
2023/04/07 03:25:33;;;;;;;13.48;9.23;;;;;;;;;;5068349;28;20048;-67
2023/04/07 03:28:00;;;;;;;10.82;8.63;;;;;;;;;;5072292;28;20074;-67
2023/04/07 03:30:30;;;;;;;11.82;8.55;;;;;;;;;;5055963;28;20488;-65
2023/04/07 03:32:55;;;;;;;13.23;9.20;;;;;;;;;;5050238;28;20032;-65
2023/04/07 03:35:21;;;;;;;13.38;9.80;;;;;;;;;;5055354;28;20036;-65
2023/04/07 03:37:46;;;;;;;13.35;9.13;;;;;;;;;;5071058;28;20120;-67
2023/04/07 03:40:16;;;;;;;9.98;7.20;;;;;;;;;;5052730;28;20035;-67
2023/04/07 03:42:42;;;;;;;13.48;9.75;;;;;;;;;;5049120;28;20037;-66
2023/04/07 03:45:10;;;;;;;17.50;9.75;;;;;;;;;;5053184;28;20062;-67
2023/04/07 03:47:40;;;;;;;10.30;8.05;;;;;;;;;;5051672;28;20032;-67
2023/04/07 03:50:06;;;;;;;11.85;9.02;;;;;;;;;;5034173;28;20036;-66
2023/04/07 03:52:39;;;;;;;10.32;8.02;;;;;;;;;;5029326;28;20064;-66
2023/04/07 03:55:14;;;;;;;14.38;9.55;;;;;;;;;;5053810;28;20516;-66
2023/04/07 03:57:40;;;;;;;12.40;8.48;;;;;;;;;;5049098;28;20087;-67
2023/04/07 04:00:07;;;;;;;10.18;8.50;;;;;;;;;;5048200;28;20038;-67
2023/04/07 04:02:41;;;;;;;12.20;8.77;;;;;;;;;;5066488;28;20029;-67
2023/04/07 04:05:09;;;;;;;14.77;10.15;;;;;;;;;;5056383;28;20067;-67
2023/04/07 04:07:35;;;;;;;13.32;9.07;;;;;;;;;;5050876;28;20056;-66
2023/04/07 04:10:04;;;;;;;14.70;9.33;;;;;;;;;;5048316;28;20072;-67
2023/04/07 04:12:36;;;;;;;13.20;8.40;;;;;;;;;;5052730;28;20107;-67
2023/04/07 04:15:07;;;;;;;13.63;9.18;;;;;;;;;;5052150;28;20107;-67
2023/04/07 04:17:33;;;;;;;17.75;9.98;;;;;;;;;;5050786;28;20140;-67
2023/04/07 04:19:59;;;;;;;13.68;9.85;;;;;;;;;;5052327;28;20112;-67
2023/04/07 04:22:36;;;;;;;39.08;18.58;;;;;;;;;;5052061;28;20028;-66
2023/04/07 04:25:01;;;;;;;106.13;53.08;;;;;;;;;;5052246;28;20132;-66
2023/04/07 04:27:27;;;;;;;42.25;22.77;;;;;;;;;;5049174;28;20036;-66
2023/04/07 04:30:02;;;;;;;121.20;66.78;;;;;;;;;;5048974;28;20071;-66
2023/04/07 04:32:36;;;;;;;16.48;10.90;;;;;;;;;;5056118;28;20115;-67
2023/04/07 04:35:02;;;;;;;20.98;13.63;;;;;;;;;;5048792;28;20547;-67
2023/04/07 04:37:31;;;;;;;26.73;18.53;;;;;;;;;;5068204;28;20044;-65
2023/04/07 04:39:57;;;;;;;6.95;6.30;;;;;;;;;;5049743;28;20307;-65
2023/04/07 04:42:25;;;;;;;19.08;12.73;;;;;;;;;;5046417;28;20102;-65
2023/04/07 04:44:52;;;;;;;20.45;15.52;;;;;;;;;;5046248;28;20024;-65
2023/04/07 04:47:18;;;;;;;20.33;12.48;;;;;;;;;;5048946;28;20047;-65
2023/04/07 04:49:45;;;;;;;21.67;17.25;;;;;;;;;;5046551;28;20407;-65
2023/04/07 04:52:10;;;;;;;13.55;9.27;;;;;;;;;;5049770;28;20032;-65
2023/04/07 04:54:40;;;;;;;17.65;11.15;;;;;;;;;;5045371;28;20095;-63
2023/04/07 04:57:07;;;;;;;16.33;11.57;;;;;;;;;;5051069;28;20056;-66
2023/04/07 04:59:33;;;;;;;11.68;7.55;;;;;;;;;;5054058;28;20040;-65
2023/04/07 05:02:02;;;;;;;13.52;10.15;;;;;;;;;;5046427;28;20710;-65
2023/04/07 05:04:27;;;;;;;18.55;13.13;;;;;;;;;;5064559;28;20045;-66
2023/04/07 05:07:11;;;;;;;14.77;10.60;;;;;;;;;;5070068;28;20055;-65
2023/04/07 05:09:37;;;;;;;19.42;9.98;;;;;;;;;;5066874;28;20067;-65
2023/04/07 05:12:03;;;;;;;14.57;9.95;;;;;;;;;;5051455;28;20034;-65
2023/04/07 05:14:34;;;;;;;16.35;10.90;;;;;;;;;;5050660;28;20044;-66
2023/04/07 05:17:04;;;;;;;15.55;9.73;;;;;;;;;;5049588;28;20066;-66
2023/04/07 05:19:29;;;;;;;13.77;9.68;;;;;;;;;;5064534;28;20064;-66
2023/04/07 05:22:01;;;;;;;12.07;8.35;;;;;;;;;;5048412;28;20043;-65
2023/04/07 05:24:28;;;;;;;11.40;7.88;;;;;;;;;;5049127;28;20044;-66
2023/04/07 05:26:57;;;;;;;12.63;9.88;;;;;;;;;;5051484;28;20110;-66
2023/04/07 05:29:24;;;;;;;13.23;9.88;;;;;;;;;;5050373;28;20677;-66
2023/04/07 05:31:50;;;;;;;13.60;9.73;;;;;;;;;;5051571;28;20040;-66
2023/04/07 05:34:17;;;;;;;14.45;9.90;;;;;;;;;;5051783;28;20462;-64
2023/04/07 05:36:50;;;;;;;19.63;12.25;;;;;;;;;;5050559;28;20036;-66
2023/04/07 05:39:15;;;;;;;14.95;10.13;;;;;;;;;;5065309;28;20033;-66
2023/04/07 05:41:42;;;;;;;15.00;10.90;;;;;;;;;;5053408;28;20037;-65
2023/04/07 05:44:09;;;;;;;15.20;10.40;;;;;;;;;;5049822;28;20044;-66
2023/04/07 05:46:39;;;;;;;16.85;11.00;;;;;;;;;;5046988;28;20369;-65
2023/04/07 05:49:05;;;;;;;16.77;10.30;;;;;;;;;;5050201;28;20043;-65
2023/04/07 05:51:31;;;;;;;14.98;9.60;;;;;;;;;;5049416;28;20036;-65
2023/04/07 05:54:05;;;;;;;14.82;10.48;;;;;;;;;;5065696;28;20090;-65
2023/04/07 05:56:31;;;;;;;15.73;11.65;;;;;;;;;;5050156;28;20135;-66
2023/04/07 05:58:57;;;;;;;15.50;11.15;;;;;;;;;;5053831;28;20111;-65
2023/04/07 06:01:23;;;;;;;14.05;10.02;;;;;;;;;;5046782;28;20125;-66
2023/04/07 06:03:49;;;;;;;13.10;10.35;;;;;;;;;;5066353;28;20878;-65
2023/04/07 06:06:18;;;;;;;14.48;10.55;;;;;;;;;;5049969;28;20055;-66
2023/04/07 06:08:45;;;;;;;11.10;9.50;;;;;;;;;;5049472;28;20040;-65
2023/04/07 06:11:11;;;;;;;15.43;10.20;;;;;;;;;;5046151;28;20037;-65
2023/04/07 06:13:36;;;;;;;14.27;10.32;;;;;;;;;;5048779;28;20077;-65
2023/04/07 06:16:02;;;;;;;17.35;10.95;;;;;;;;;;5048911;28;20036;-65
2023/04/07 06:18:27;;;;;;;17.80;10.60;;;;;;;;;;5045953;28;20117;-65
2023/04/07 06:20:53;;;;;;;13.05;9.50;;;;;;;;;;5050319;28;20024;-65
2023/04/07 06:23:18;;;;;;;14.20;9.35;;;;;;;;;;5050432;28;20107;-65
2023/04/07 06:25:44;;;;;;;16.98;10.55;;;;;;;;;;5045415;28;20037;-65
2023/04/07 06:28:10;;;;;;;13.07;9.20;;;;;;;;;;5068126;28;20036;-65
2023/04/07 06:30:35;;;;;;;16.55;11.30;;;;;;;;;;5051559;28;20115;-65
2023/04/07 06:33:02;;;;;;;14.02;10.52;;;;;;;;;;5050201;28;20086;-65
2023/04/07 06:35:28;;;;;;;16.25;11.05;;;;;;;;;;5046121;28;20045;-65
2023/04/07 06:37:54;;;;;;;15.15;9.80;;;;;;;;;;5048378;28;20033;-65
2023/04/07 06:40:20;;;;;;;14.95;10.25;;;;;;;;;;5051724;28;20040;-66
2023/04/07 06:42:45;;;;;;;10.18;7.70;;;;;;;;;;5070533;28;20036;-65
2023/04/07 06:45:25;;;;;;;10.05;7.60;;;;;;;;;;5069508;28;20037;-65
2023/04/07 06:47:51;;;;;;;12.88;9.35;;;;;;;;;;5071674;28;20032;-65
2023/04/07 06:50:19;;;;;;;12.82;8.48;;;;;;;;;;5071900;28;20099;-66
2023/04/07 06:52:45;;;;;;;14.75;10.13;;;;;;;;;;5069451;28;20514;-65
2023/04/07 06:55:10;;;;;;;38.17;29.60;;;;;;;;;;5068960;28;20036;-65
2023/04/07 06:57:36;;;;;;;13.93;10.88;;;;;;;;;;5071656;28;20503;-65
2023/04/07 07:00:02;;;;;;;13.45;9.68;;;;;;;;;;5072278;28;20476;-65
2023/04/07 07:02:27;;;;;;;11.80;8.73;;;;;;;;;;5070924;28;20101;-66
2023/04/07 07:04:53;;;;;;;16.00;12.15;;;;;;;;;;5068602;28;20785;-65
2023/04/07 07:07:18;;;;;;;13.55;9.57;;;;;;;;;;5071940;28;20028;-66
2023/04/07 07:09:44;;;;;;;14.52;10.55;;;;;;;;;;5073437;28;20123;-65
2023/04/07 07:12:09;;;;;;;11.43;8.57;;;;;;;;;;5072649;28;20510;-65
2023/04/07 07:14:35;;;;;;;14.25;10.20;;;;;;;;;;5067720;28;20044;-65
2023/04/07 07:17:00;;;;;;;12.70;9.52;;;;;;;;;;5071819;28;20142;-65
2023/04/07 07:19:26;;;;;;;15.43;10.90;;;;;;;;;;5070361;28;20028;-66
2023/04/07 07:21:51;;;;;;;15.82;10.50;;;;;;;;;;5070201;28;20035;-65
2023/04/07 07:24:17;;;;;;;12.75;10.23;;;;;;;;;;5068182;28;20050;-65
2023/04/07 07:26:43;;;;;;;13.48;10.18;;;;;;;;;;5071020;28;20171;-66
2023/04/07 07:29:09;;;;;;;12.10;9.65;;;;;;;;;;5069563;28;20459;-65
2023/04/07 07:31:35;;;;;;;10.60;9.50;;;;;;;;;;5073934;28;20167;-66
2023/04/07 07:34:00;;;;;;;10.43;8.93;;;;;;;;;;5069989;28;20052;-66
2023/04/07 07:36:26;;;;;;;11.35;9.75;;;;;;;;;;5067609;28;20048;-66
2023/04/07 07:38:52;;;;;;;11.10;9.73;;;;;;;;;;5068881;28;20032;-65
2023/04/07 07:41:17;;;;;;;10.73;8.48;;;;;;;;;;5070680;28;20040;-65
2023/04/07 07:43:43;;;;;;;10.40;9.23;;;;;;;;;;5070716;28;20037;-66
2023/04/07 07:46:08;;;;;;;11.25;9.25;;;;;;;;;;5069199;28;20170;-65
2023/04/07 07:48:34;;;;;;;11.73;9.43;;;;;;;;;;5068203;28;20387;-66
2023/04/07 07:50:59;;;;;;;11.10;9.77;;;;;;;;;;5071822;28;20492;-65
2023/04/07 07:53:25;;;;;;;11.15;8.82;;;;;;;;;;5067775;28;20041;-66
2023/04/07 07:55:50;;;;;;;11.25;9.55;;;;;;;;;;5064554;28;20446;-66
2023/04/07 07:58:16;;;;;;;11.70;9.25;;;;;;;;;;5063576;28;20036;-66
2023/04/07 08:00:42;;;;;;;10.57;8.40;;;;;;;;;;5065714;28;20021;-66
2023/04/07 08:03:07;;;;;;;9.75;8.63;;;;;;;;;;5068153;28;20535;-66
2023/04/07 08:05:33;;;;;;;8.98;8.00;;;;;;;;;;5068069;28;20036;-66
2023/04/07 08:07:58;;;;;;;11.10;8.50;;;;;;;;;;5067572;28;20059;-66
2023/04/07 08:10:24;;;;;;;9.18;8.23;;;;;;;;;;5064961;28;20117;-66
2023/04/07 08:12:50;;;;;;;11.55;8.77;;;;;;;;;;5066483;28;20098;-66
2023/04/07 08:15:16;;;;;;;9.98;8.98;;;;;;;;;;5067725;28;20032;-66
2023/04/07 08:17:41;;;;;;;11.55;9.45;;;;;;;;;;5065047;28;20527;-65
2023/04/07 08:20:09;;;;;;;10.70;8.45;;;;;;;;;;5065119;28;20037;-66
2023/04/07 08:22:34;;;;;;;8.43;7.63;;;;;;;;;;5067066;28;20056;-66
2023/04/07 08:25:00;;;;;;;11.50;8.32;;;;;;;;;;5062004;28;20056;-66
2023/04/07 08:27:25;;;;;;;9.27;7.13;;;;;;;;;;5064163;28;20051;-66
2023/04/07 08:30:05;;;;;;;8.20;6.63;;;;;;;;;;5068152;28;20078;-66
2023/04/07 08:32:42;;;;;;;;;;;;;;;;;;5065052;28;20082;-66
2023/04/07 08:35:08;;;;;;;10.07;7.43;;;;;;;;;;5062534;28;19919;-67
2023/04/07 08:37:34;;;;;;;8.90;7.05;;;;;;;;;;5065230;28;20029;-67
2023/04/07 08:40:00;;;;;;;13.27;7.90;;;;;;;;;;5071505;28;20651;-66
2023/04/07 08:42:28;;;;;;;9.27;6.57;;;;;;;;;;5067397;28;20039;-67
2023/04/07 08:45:05;;;;;;;13.18;5.88;;;;;;;;;;5069278;28;20033;-67
2023/04/07 08:47:32;;;;;;;14.77;5.68;;;;;;;;;;5070100;28;20047;-66
2023/04/07 08:50:08;;;;;;;10.60;5.88;;;;;;;;;;5072770;28;20116;-67
2023/04/07 08:52:39;;;;;;;10.15;6.38;;;;;;;;;;5049625;28;20054;-67
2023/04/07 08:55:07;;;;;;;7.10;6.50;;;;;;;;;;5037695;28;20035;-67
2023/04/07 08:57:33;;;;;;;8.32;6.18;;;;;;;;;;5069372;28;20488;-67
2023/04/07 09:00:06;;;;;;;8.05;5.78;;;;;;;;;;5066476;28;20033;-67
2023/04/07 09:02:33;;;;;;;7.65;6.32;;;;;;;;;;5050103;28;20353;-67
2023/04/07 09:04:59;;;;;;;11.80;5.68;;;;;;;;;;5069339;28;20037;-67
2023/04/07 09:07:25;;;;;;;15.32;8.15;;;;;;;;;;5065655;28;20032;-67
2023/04/07 09:09:51;;;;;;;8.02;5.38;;;;;;;;;;5070300;28;20036;-67
2023/04/07 09:12:17;;;;;;;6.07;5.03;;;;;;;;;;5070981;28;20031;-67
2023/04/07 09:14:42;;;;;;;7.43;5.47;;;;;;;;;;5072038;28;20040;-65
2023/04/07 09:17:08;;;;;;;8.85;5.25;;;;;;;;;;5063640;28;20044;-66
2023/04/07 09:19:34;;;;;;;9.05;5.60;;;;;;;;;;5067976;28;20052;-66
2023/04/07 09:21:59;;;;;;;7.35;6.20;;;;;;;;;;5068737;28;20068;-66
2023/04/07 09:24:27;;;;;;;11.50;4.75;;;;;;;;;;5070613;28;20476;-66
2023/04/07 09:27:12;;;;;;;5.40;4.90;;;;;;;;;;5048195;28;20058;-66
2023/04/07 09:29:39;;;;;;;11.82;5.43;;;;;;;;;;5051206;28;20041;-66
2023/04/07 09:32:05;;;;;;;5.85;4.82;;;;;;;;;;5070818;28;20029;-66
2023/04/07 09:34:36;;;;;;;6.32;5.28;;;;;;;;;;5070075;28;20159;-66
2023/04/07 09:37:02;;;;;;;5.35;4.80;;;;;;;;;;5048733;28;20637;-66
2023/04/07 09:39:28;;;;;;;5.65;5.07;;;;;;;;;;5067946;28;20060;-65
2023/04/07 09:41:54;;;;;;;6.38;5.18;;;;;;;;;;5057394;28;20036;-66
2023/04/07 09:44:21;;;;;;;5.10;4.60;;;;;;;;;;5070667;28;20043;-66
2023/04/07 09:46:57;;;;;;;9.63;5.03;;;;;;;;;;5065907;28;20047;-66
2023/04/07 09:49:25;;;;;;;5.75;4.57;;;;;;;;;;5066440;28;20047;-64
2023/04/07 09:51:59;;;;;;;8.05;5.43;;;;;;;;;;5061922;28;20048;-67
2023/04/07 09:54:40;;;;;;;8.60;5.00;;;;;;;;;;5067174;28;20028;-67
2023/04/07 09:57:08;;;;;;;6.20;4.70;;;;;;;;;;5069135;28;20039;-67
2023/04/07 09:59:36;;;;;;;7.60;4.65;;;;;;;;;;5048963;28;20036;-67
2023/04/07 10:02:02;;;;;;;6.90;4.50;;;;;;;;;;5068733;28;20118;-65
2023/04/07 10:04:28;;;;;;;7.78;5.07;;;;;;;;;;5064967;28;20032;-66
2023/04/07 10:06:54;;;;;;;5.78;4.97;;;;;;;;;;5068713;28;20048;-67
2023/04/07 10:09:23;;;;;;;7.35;4.88;;;;;;;;;;5064482;28;20024;-66
2023/04/07 10:11:50;;;;;;;5.72;4.78;;;;;;;;;;5066280;28;20475;-66
2023/04/07 10:14:18;;;;;;;8.52;5.18;;;;;;;;;;5068819;28;20487;-67
2023/04/07 10:16:46;;;;;;;6.43;5.65;;;;;;;;;;5065719;28;20020;-67
2023/04/07 10:19:12;;;;;;;7.30;5.43;;;;;;;;;;5066786;28;20029;-67
2023/04/07 10:21:41;;;;;;;11.50;5.55;;;;;;;;;;5064917;28;20032;-66
2023/04/07 10:24:30;;;;;;;7.47;5.73;;;;;;;;;;5067739;28;20829;-67
2023/04/07 10:27:03;;;;;;;8.43;6.07;;;;;;;;;;5063948;28;20119;-67
2023/04/07 10:29:35;;;;;;;6.20;4.95;;;;;;;;;;5065263;28;20800;-67
2023/04/07 10:32:02;;;;;;;7.28;6.35;;;;;;;;;;5069247;28;20036;-66
2023/04/07 10:34:47;;;;;;;7.57;5.85;;;;;;;;;;5064919;28;20064;-67
2023/04/07 10:37:16;;;;;;;6.32;5.47;;;;;;;;;;5063507;28;20075;-67
2023/04/07 10:39:42;;;;;;;5.95;5.32;;;;;;;;;;5064053;28;20033;-67
2023/04/07 10:42:39;;;;;;;8.43;5.72;;;;;;;;;;5059403;28;20028;-67
2023/04/07 10:45:09;;;;;;;8.70;5.30;;;;;;;;;;5067202;28;20472;-67
2023/04/07 10:47:56;;;;;;;7.78;6.20;;;;;;;;;;5063681;28;20522;-67
2023/04/07 10:50:23;;;;;;;7.30;5.95;;;;;;;;;;5059337;28;20528;-68
2023/04/07 10:53:07;;;;;;;7.95;6.45;;;;;;;;;;5061507;28;20557;-68
2023/04/07 10:55:40;;;;;;;7.85;6.30;;;;;;;;;;5065688;28;20043;-68
2023/04/07 10:58:17;;;;;;;7.78;6.07;;;;;;;;;;5062361;28;20059;-67
2023/04/07 11:00:58;;;;;;;7.65;6.00;;;;;;;;;;5061322;28;20021;-67
2023/04/07 11:03:24;;;;;;;8.52;6.60;;;;;;;;;;5064818;28;20513;-66
2023/04/07 11:05:50;;;;;;;8.45;6.15;;;;;;;;;;5058409;28;20040;-67
2023/04/07 11:08:34;;;;;;;7.30;6.32;;;;;;;;;;5061723;28;20089;-66
2023/04/07 11:10:59;;;;;;;6.22;5.63;;;;;;;;;;5058966;28;20048;-66
2023/04/07 11:13:26;;;;;;;10.45;6.55;;;;;;;;;;5062174;28;20035;-67
2023/04/07 11:15:52;;;;;;;7.38;6.38;;;;;;;;;;5063209;28;20039;-67
2023/04/07 11:18:19;;;;;;;8.60;6.65;;;;;;;;;;5058565;28;20044;-68
2023/04/07 11:20:52;;;;;;;8.23;5.93;;;;;;;;;;5064817;28;20024;-68
2023/04/07 11:23:19;;;;;;;6.63;6.03;;;;;;;;;;5061676;28;20036;-67
2023/04/07 11:25:47;;;;;;;10.68;7.85;;;;;;;;;;5065125;28;20073;-67
2023/04/07 11:28:13;;;;;;;9.70;8.35;;;;;;;;;;5063276;28;20040;-68
2023/04/07 11:30:50;;;;;;;7.63;6.00;;;;;;;;;;5066229;28;20045;-67
2023/04/07 11:33:21;;;;;;;7.38;6.53;;;;;;;;;;5063262;28;20036;-67
2023/04/07 11:35:51;;;;;;;7.18;5.55;;;;;;;;;;5065773;28;20682;-67
2023/04/07 11:38:18;;;;;;;7.05;5.60;;;;;;;;;;5062284;28;20029;-67
2023/04/07 11:40:44;;;;;;;7.97;5.55;;;;;;;;;;5067517;28;20469;-67
2023/04/07 11:43:17;;;;;;;6.03;5.53;;;;;;;;;;5066937;28;20039;-65
2023/04/07 11:45:43;;;;;;;6.65;5.05;;;;;;;;;;5067745;28;20773;-68
2023/04/07 11:48:25;;;;;;;6.63;5.18;;;;;;;;;;5063016;28;20025;-67
2023/04/07 11:50:51;;;;;;;5.97;5.38;;;;;;;;;;5067047;28;20393;-66
2023/04/07 11:53:39;;;;;;;6.18;5.55;;;;;;;;;;5066705;28;20496;-66
2023/04/07 11:56:09;;;;;;;5.28;4.78;;;;;;;;;;5067407;28;20820;-66
2023/04/07 11:58:35;;;;;;;9.77;5.50;;;;;;;;;;5065694;28;20028;-66
2023/04/07 12:01:07;;;;;;;8.20;6.03;;;;;;;;;;5068219;28;20044;-66
2023/04/07 12:03:37;;;;;;;7.30;5.60;;;;;;;;;;5068012;28;20070;-66
2023/04/07 12:06:03;;;;;;;8.23;6.00;;;;;;;;;;5067399;28;20043;-66
2023/04/07 12:08:40;;;;;;;7.18;6.13;;;;;;;;;;5065141;28;20108;-66
2023/04/07 12:11:06;;;;;;;6.80;6.07;;;;;;;;;;5067955;28;20444;-67
2023/04/07 12:13:32;;;;;;;8.68;6.05;;;;;;;;;;5070511;28;20031;-66
2023/04/07 12:15:58;;;;;;;7.07;5.63;;;;;;;;;;5068247;28;20032;-66
2023/04/07 12:18:24;;;;;;;7.65;5.32;;;;;;;;;;5066947;28;20115;-66
2023/04/07 12:20:50;;;;;;;6.40;5.70;;;;;;;;;;5067577;28;20162;-66
2023/04/07 12:23:15;;;;;;;8.65;5.10;;;;;;;;;;5071999;28;20039;-66
2023/04/07 12:25:41;;;;;;;5.75;5.25;;;;;;;;;;5068397;28;20123;-66
2023/04/07 12:28:07;;;;;;;4.88;4.47;;;;;;;;;;5069293;28;20032;-66
2023/04/07 12:30:32;;;;;;;6.32;4.15;;;;;;;;;;5068678;28;20107;-66
2023/04/07 12:32:58;;;;;;;5.18;4.70;;;;;;;;;;5066389;28;20067;-66
2023/04/07 12:35:23;;;;;;;6.03;4.85;;;;;;;;;;5066501;28;20066;-66
2023/04/07 12:37:50;;;;;;;10.35;6.10;;;;;;;;;;5065961;28;20680;-65
2023/04/07 12:40:16;;;;;;;15.38;7.40;;;;;;;;;;5070709;28;20088;-65
2023/04/07 12:42:42;;;;;;;10.45;6.85;;;;;;;;;;5065775;28;20472;-66
2023/04/07 12:45:08;;;;;;;12.73;8.73;;;;;;;;;;5070617;28;20029;-66
2023/04/07 12:47:33;;;;;;;10.82;7.57;;;;;;;;;;5068515;28;20167;-66
2023/04/07 12:50:00;;;;;;;9.75;7.35;;;;;;;;;;5066775;28;20488;-66
2023/04/07 12:52:26;;;;;;;10.20;6.78;;;;;;;;;;5065002;28;20033;-66
2023/04/07 12:54:52;;;;;;;9.68;7.57;;;;;;;;;;5053619;28;20487;-66
2023/04/07 12:57:18;;;;;;;8.95;8.05;;;;;;;;;;5068322;28;20113;-65
2023/04/07 12:59:44;;;;;;;11.88;7.60;;;;;;;;;;5067662;28;20119;-66
2023/04/07 13:02:12;;;;;;;12.07;7.30;;;;;;;;;;5046923;28;20120;-66
2023/04/07 13:04:39;;;;;;;9.07;7.82;;;;;;;;;;5067725;28;20036;-65
2023/04/07 13:07:05;;;;;;;12.00;6.88;;;;;;;;;;5050519;28;20535;-66
2023/04/07 13:09:31;;;;;;;7.38;5.53;;;;;;;;;;5065300;28;20040;-65
2023/04/07 13:11:56;;;;;;;7.20;5.55;;;;;;;;;;5067665;28;20491;-66
2023/04/07 13:14:22;;;;;;;8.10;6.35;;;;;;;;;;5067862;28;20514;-66
2023/04/07 13:16:48;;;;;;;11.10;7.63;;;;;;;;;;5069368;28;20028;-66
2023/04/07 13:19:13;;;;;;;9.02;6.07;;;;;;;;;;5044910;28;20029;-66
2023/04/07 13:21:39;;;;;;;6.45;5.43;;;;;;;;;;5067427;28;20162;-66
2023/04/07 13:24:04;;;;;;;7.95;6.72;;;;;;;;;;5068585;28;20060;-66
2023/04/07 13:26:30;;;;;;;7.65;6.82;;;;;;;;;;5069708;28;20040;-66
2023/04/07 13:28:56;;;;;;;9.02;7.18;;;;;;;;;;5063857;28;20037;-66
2023/04/07 13:31:22;;;;;;;7.28;6.10;;;;;;;;;;5066358;28;20063;-66
2023/04/07 13:33:48;;;;;;;6.68;5.63;;;;;;;;;;5067847;28;20032;-66
2023/04/07 13:36:13;;;;;;;7.07;5.85;;;;;;;;;;5065342;28;20085;-66
2023/04/07 13:38:41;;;;;;;7.22;5.93;;;;;;;;;;5067165;28;20047;-66
2023/04/07 13:41:06;;;;;;;6.85;6.18;;;;;;;;;;5070564;28;20075;-66
2023/04/07 13:43:32;;;;;;;6.72;6.15;;;;;;;;;;5061273;28;20076;-65
2023/04/07 13:45:58;;;;;;;6.82;6.22;;;;;;;;;;5063835;28;20623;-65
2023/04/07 13:48:23;;;;;;;7.88;6.13;;;;;;;;;;5065950;28;20193;-65
2023/04/07 13:50:49;;;;;;;6.65;6.13;;;;;;;;;;5067831;28;20094;-65
2023/04/07 13:53:14;;;;;;;6.55;5.90;;;;;;;;;;5055688;28;20074;-65
2023/04/07 13:55:40;;;;;;;6.97;6.28;;;;;;;;;;5064474;28;20032;-65
2023/04/07 13:58:06;;;;;;;9.77;7.03;;;;;;;;;;5065280;28;20059;-64
2023/04/07 14:00:31;;;;;;;6.78;6.07;;;;;;;;;;5050502;28;20467;-66
2023/04/07 14:02:57;;;;;;;7.63;6.90;;;;;;;;;;5065987;28;20107;-65
2023/04/07 14:05:23;;;;;;;7.93;6.88;;;;;;;;;;5064865;28;20238;-65
2023/04/07 14:07:49;;;;;;;7.95;7.03;;;;;;;;;;5068165;28;20048;-65
2023/04/07 14:10:15;;;;;;;8.43;7.32;;;;;;;;;;5065324;28;20526;-65
2023/04/07 14:12:41;;;;;;;8.63;7.35;;;;;;;;;;5065685;28;20040;-65
2023/04/07 14:15:07;;;;;;;7.88;6.70;;;;;;;;;;5063436;28;20055;-66
2023/04/07 14:17:33;;;;;;;7.20;6.50;;;;;;;;;;5065804;28;20032;-65
2023/04/07 14:19:58;;;;;;;7.53;6.75;;;;;;;;;;5065823;28;20032;-65
2023/04/07 14:22:24;;;;;;;7.38;6.68;;;;;;;;;;5064555;28;20412;-65
2023/04/07 14:24:49;;;;;;;10.73;6.03;;;;;;;;;;5066884;28;20129;-65
2023/04/07 14:27:19;;;;;;;8.20;6.07;;;;;;;;;;5066872;28;20048;-65
2023/04/07 14:29:47;;;;;;;9.48;6.60;;;;;;;;;;5066249;28;20060;-65
2023/04/07 14:32:14;;;;;;;5.90;5.37;;;;;;;;;;5044964;28;20044;-65
2023/04/07 14:34:40;;;;;;;7.15;6.38;;;;;;;;;;5065082;28;20075;-65
2023/04/07 14:37:06;;;;;;;7.45;6.20;;;;;;;;;;5071128;28;20070;-65
2023/04/07 14:39:31;;;;;;;7.60;6.32;;;;;;;;;;5065638;28;20111;-65
2023/04/07 14:41:57;;;;;;;7.50;6.13;;;;;;;;;;5065317;28;20494;-65